Tiempo atmosférico en la estación meteorológica de Capella, Huesca (600 m.)



Fecha
DESCASC
Temp. máxima en grados centígrados (hora)
DESCASC
Temp. mínima en grados centígrados (hora)
DESCASC
Temp. media en grados centígrados
DESCASC
Racha de viento máxima en m/sg (hora)
DESCASC
Velocidad máxima media en intervalos de 10 minutos(hora)
DESCASC
Precipitaciones diarias en mm
DESCASC
Precipitaciones de 00:00 a 06:00 en mm
DESCASC
Precipitaciones de 06:00 a 12:00 en mm
DESCASC
Precipitaciones de 12:00 a 18:00 en mm
DESCASC
Precipitaciones de 18:00 a 24:00 en mm
DESCASC
17-10-2019 20.1 (16:50) 5.9 (07:50) 13 4.72 (15:40) 2.78 (18:20) 0 0 0 0 0
16-10-2019 18.9 (16:00) 6 (04:20) 12.4 6.11 (16:40) 4.17 (16:40) 0 0 0 0 0
15-10-2019 18 (17:20) 7.3 (23:50) 12.7 7.78 (18:50) 5 (18:50) 0.4 0.4 0 0 0
14-10-2019 18.6 (12:10) 11.4 (23:40) 15 13.33 (20:00) 5.56 (20:00) 22.2 0 0 3.6 18.6
13-10-2019 25.9 (17:30) 13.3 (00:00) 19.6 9.72 (20:50) 4.72 (20:10) 0 0 0 0 0
12-10-2019 25.6 (15:20) 13 (00:00) 19.3 8.06 (11:20) 4.72 (11:30) 0 0 0 0 0
11-10-2019 26.7 (17:10) 5.9 (00:00) 16.3 6.39 (16:10) 3.61 (15:40) 0 0 0 0 0
10-10-2019 21.6 (16:50) 6 (00:00) 13.8 7.22 (15:10) 4.72 (15:10) 0 0 0 0 0
09-10-2019 24 (15:50) 10.1 (00:00) 17.1 7.78 (17:10) 4.72 (15:20) 0 0 0 0 0
08-10-2019 26 (17:10) 9.3 (00:00) 17.7 6.67 (15:00) 4.72 (15:10) 0 0 0 0 0
07-10-2019 24 (18:20) 5.6 (00:00) 14.8 6.39 (16:40) 3.61 (15:20) 0 0 0 0 0
06-10-2019 23.5 (18:50) 7.5 (00:00) 15.5 8.06 (13:50) 5 (13:30) 0 0 0 0 0
05-10-2019 24.2 (15:40) 8.9 (00:00) 16.6 8.33 (15:00) 5.28 (14:40) 0 0 0 0 0
04-10-2019 25.4 (17:50) 6.7 (00:00) 16 7.78 (15:00) 4.44 (13:10) 0 0 0 0 0
03-10-2019 23.4 (17:10) 6.1 (00:00) 14.7 6.94 (14:10) 4.44 (14:10) 0 0 0 0 0
02-10-2019 25.7 (16:40) 8.5 (00:00) 17.1 10 (14:30) 5.28 (15:40) 0 0 0 0 0
01-10-2019 28.1 (15:00) 10.3 (00:00) 19.2 9.72 (20:50) 5.83 (21:00) 0 0 0 0 0
30-09-2019 28.8 (16:10) 10.8 (00:00) 19.8 8.06 (16:40) 5.28 (16:40) 0 0 0 0 0
29-09-2019 28.7 (15:10) 10.2 (00:00) 19.5 8.89 (18:10) 5 (17:40) 0 0 0 0 0
28-09-2019 26.2 (17:00) 9.5 (00:00) 17.9 7.78 (16:40) 3.61 (16:00) 0 0 0 0 0
27-09-2019 28.2 (16:10) 11.2 (00:00) 19.7 7.78 (14:00) 3.89 (16:50) 0 0 0 0 0
26-09-2019 26.1 (18:10) 9.8 (00:00) 18 7.5 (14:00) 4.44 (13:00) 0 0 0 0 0
25-09-2019 24.4 (16:10) 12.9 (00:00) 18.6 7.5 (11:50) 4.17 (11:50) 0 0 0 0 0
24-09-2019 27.1 (16:10) 9.8 (00:00) 18.5 10.56 (15:10) 5.56 (15:50) 0 0 0 0 0
23-09-2019 22.9 (17:00) 8.2 (00:00) 15.5 8.33 (16:00) 4.72 (18:00) 0 0 0 0 0
22-09-2019 23.6 (16:40) 13.6 (00:00) 18.6 7.5 (15:30) 4.17 (12:50) 0 0 0 0 0
21-09-2019 25.9 (18:10) 15.3 (00:00) 20.6 6.94 (12:40) 3.89 (13:00) 0.2 0 0 0.2 0
20-09-2019 27.9 (16:50) 14.5 (00:00) 21.2 8.89 (20:00) 4.44 (20:00) 0 0 0 0 0

Gráficas

Temp. máximas Temp. mínimas Temp. medias Precipitaciones Rachas de viento máximas Velocidades máximas media en intervalos de 10 minutos

Datos horarios

Fecha y hora oficial Temperatura (ºC) Velocidad del viento (km/h) Dirección del viento Racha (km/h) Dirección de racha Precipitación (mm) Presión (hPa) Tendencia (hPa) Humedad (%)
2019-10-19 23:00:00 15.4 8 Nordeste 15 Este 0 -- -- 72
2019-10-19 22:00:00 14.7 7 Nordeste 16 Nordeste 0 -- -- 71
2019-10-19 21:00:00 14.2 8 Nordeste 14 Nordeste 0 -- -- 75
2019-10-19 20:00:00 15.5 4 Este 12 Nordeste 0 -- -- 71
2019-10-19 19:00:00 17.8 4 Sudeste 6 Sur 0 -- -- 65
2019-10-19 18:00:00 19.9 2 Sudeste 7 Norte 0 -- -- 54
2019-10-19 17:00:00 19.6 2 Noroeste 9 Sudoeste 0 -- -- 56
2019-10-19 16:00:00 19.4 8 Sudoeste 15 Sudoeste 0 -- -- 56
2019-10-19 15:00:00 19.4 4 Oeste 12 Oeste 0 -- -- 55
2019-10-19 14:00:00 18.9 6 Oeste 14 Oeste 0 -- -- 55
2019-10-19 13:00:00 18.2 9 Oeste 15 Oeste 0 -- -- 60
2019-10-19 12:00:00 16.9 3 Noroeste 9 Oeste 0 -- -- 73
2019-10-19 11:00:00 14.9 2 Sudeste 5 Sudeste 0 -- -- 81
2019-10-19 10:00:00 12 3 Sudeste 10 Nordeste 0 -- -- 93
2019-10-19 09:00:00 10.6 2 Nordeste 6 Este 0 -- -- 95
2019-10-19 08:00:00 10.6 5 Sur 8 Sur 0 -- -- 93
2019-10-19 07:00:00 10.8 0 Calma 9 Sudeste 0 -- -- 93
2019-10-19 06:00:00 10.7 2 Noroeste 10 Este 0 -- -- 91
2019-10-19 05:00:00 11.6 4 Nordeste 7 Este 0 -- -- 89
2019-10-19 04:00:00 12.2 0 Calma 6 Sudeste 0 -- -- 90
2019-10-19 03:00:00 12.4 0 Calma 9 Nordeste 0 -- -- 89
2019-10-19 02:00:00 12.9 2 Nordeste 9 Nordeste 0 -- -- 87
2019-10-19 01:00:00 13.1 5 Sudeste 9 Nordeste 0 -- -- 88
2019-10-19 00:00:00 13.8 2 Este 9 Este 0 -- -- 85
2019-10-18 23:00:00 13.7 3 Sur 13 Nordeste 0 -- -- 88
2019-10-18 22:00:00 13.7 7 Nordeste 13 Nordeste 0 -- -- 87
2019-10-18 21:00:00 14.4 4 Nordeste 7 Nordeste 0 -- -- 85
2019-10-18 20:00:00 16.2 4 Este 12 Sudoeste 0 -- -- 78
2019-10-18 19:00:00 17.4 9 Sudoeste 15 Sudoeste 0 -- -- 73
2019-10-18 18:00:00 19.1 6 Sudoeste 8 Sudoeste 0 -- -- 60
2019-10-18 17:00:00 20 5 Oeste 14 Sudoeste 0 -- -- 55
2019-10-18 16:00:00 19.7 8 Oeste 13 Sudoeste 0 -- -- 60
2019-10-18 15:00:00 19 5 Oeste 12 Oeste 0 -- -- 63
2019-10-18 14:00:00 18.1 6 Sudoeste 12 Sudoeste 0 -- -- 70
2019-10-18 13:00:00 17 2 Sur 12 Nordeste 0 -- -- 71
2019-10-18 12:00:00 14.3 2 Este 8 Sudeste 0 -- -- 81
2019-10-18 11:00:00 12.2 5 Sur 10 Sudoeste 0 -- -- 88
2019-10-18 10:00:00 11 3 Noroeste 11 Nordeste 0.2 -- -- 95
2019-10-18 09:00:00 10.3 6 Nordeste 9 Sur 0.2 -- -- 94
2019-10-18 08:00:00 9.9 6 Sudoeste 10 Sudoeste 0 -- -- 94
2019-10-18 07:00:00 10.1 4 Este 8 Este 0.2 -- -- 91
2019-10-18 06:00:00 9.8 2 Sur 6 Sudeste 0 -- -- 90
2019-10-18 05:00:00 9.3 4 Este 5 Este 0 -- -- 88
2019-10-18 04:00:00 8.4 2 Nordeste 5 Sur 0 -- -- 91
2019-10-18 03:00:00 8.7 2 Norte 9 Este 0 -- -- 88
2019-10-18 02:00:00 8.5 5 Nordeste 10 Nordeste 0 -- -- 89
2019-10-18 01:00:00 8.6 2 Este 8 Nordeste 0 -- -- 88
2019-10-18 00:00:00 10 3 Este 12 Nordeste 0 -- -- 83
2019-10-17 23:00:00 10.5 3 Este 10 Este 0 -- -- 81
2019-10-17 22:00:00 11.4 5 Nordeste 12 Nordeste 0 -- -- 79
2019-10-17 21:00:00 13.2 3 Este 7 Este 0 -- -- 72
2019-10-17 20:00:00 15.7 5 Sudoeste 13 Sudoeste 0 -- -- 62
2019-10-17 19:00:00 17.1 10 Sudoeste 16 Oeste 0 -- -- 55
2019-10-17 18:00:00 19.2 8 Oeste 13 Oeste 0 -- -- 47
2019-10-17 17:00:00 19.9 10 Sudoeste 16 Sudoeste 0 -- -- 44
2019-10-17 16:00:00 19.5 8 Sudoeste 17 Sudoeste 0 -- -- 44
2019-10-17 15:00:00 17.6 6 Sudoeste 14 Sudoeste 0 -- -- 49
2019-10-17 14:00:00 16 8 Oeste 15 Oeste 0 -- -- 64
2019-10-17 13:00:00 14.4 4 Sudoeste 9 Oeste 0 -- -- 74
2019-10-17 12:00:00 12.6 2 Oeste 5 Noroeste 0 -- -- 75
2019-10-17 11:00:00 11.2 3 Noroeste 6 Noroeste 0 -- -- 81
2019-10-17 10:00:00 10 3 Oeste 8 Sur 0 -- -- 87
2019-10-17 09:00:00 6.7 0 Calma 7 Este 0 -- -- 93
2019-10-17 08:00:00 6 4 Sudeste 8 Nordeste 0 -- -- 94
2019-10-17 07:00:00 6.1 4 Sudeste 7 Nordeste 0 -- -- 93
2019-10-17 06:00:00 6.4 3 Este 6 Nordeste 0 -- -- 91
2019-10-17 05:00:00 6.9 4 Este 8 Sudeste 0 -- -- 91
2019-10-17 04:00:00 6.5 2 Este 7 Nordeste 0 -- -- 91
2019-10-17 03:00:00 7 3 Este 8 Nordeste 0 -- -- 91
2019-10-17 02:00:00 7.8 2 Sudeste 7 Sudeste 0 -- -- 87
2019-10-17 01:00:00 8.9 3 Este 12 Este 0 -- -- 83
2019-10-17 00:00:00 8.8 6 Este 10 Este 0 -- -- 85
2019-10-16 23:00:00 9.8 2 Nordeste 8 Nordeste 0 -- -- 80
2019-10-16 22:00:00 10.4 3 Este 13 Nordeste 0 -- -- 78
2019-10-16 21:00:00 11.1 0 Calma 7 Sudeste 0 -- -- 75
2019-10-16 20:00:00 13.3 2 Sur 12 Sudoeste 0 -- -- 65
2019-10-16 19:00:00 16 7 Sudoeste 15 Sudoeste 0 -- -- 54
2019-10-16 18:00:00 18.2 10 Sudoeste 19 Sudoeste 0 -- -- 46
2019-10-16 17:00:00 18.3 13 Sudoeste 22 Sudoeste 0 -- -- 44
2019-10-16 16:00:00 18.9 10 Sudoeste 20 Oeste 0 -- -- 42
2019-10-16 15:00:00 17.8 10 Sudoeste 20 Sudoeste 0 -- -- 47
2019-10-16 14:00:00 17.6 12 Sudoeste 19 Oeste 0 -- -- 44
2019-10-16 13:00:00 16.7 10 Sudoeste 18 Oeste 0 -- -- 47
2019-10-16 12:00:00 14.7 9 Sudoeste 12 Sudoeste 0 -- -- 53
2019-10-16 11:00:00 11.8 3 Oeste 6 Noroeste 0 -- -- 75
2019-10-16 10:00:00 9.8 0 Calma 6 Este 0 -- -- 80
2019-10-16 09:00:00 6.7 0 Calma 5 Sudeste 0 -- -- 93
2019-10-16 08:00:00 6.8 0 Calma 4 Nordeste 0 -- -- 93
2019-10-16 07:00:00 7 0 Calma 8 Este 0 -- -- 91
2019-10-16 06:00:00 6.9 5 Este 8 Sudeste 0 -- -- 93
2019-10-16 05:00:00 6.5 3 Este 8 Sudeste 0 -- -- 92
2019-10-16 04:00:00 6.3 3 Norte 8 Este 0 -- -- 90
2019-10-16 03:00:00 6.3 5 Este 8 Nordeste 0 -- -- 91
2019-10-16 02:00:00 6.7 3 Nordeste 9 Este 0 -- -- 89
2019-10-16 01:00:00 6.7 6 Nordeste 9 Nordeste 0 -- -- 89
2019-10-16 00:00:00 7.3 4 Este 13 Este 0 -- -- 88
2019-10-15 23:00:00 8.5 3 Nordeste 10 Nordeste 0 -- -- 81
2019-10-15 22:00:00 9.2 0 Calma 7 Nordeste 0 -- -- 78
2019-10-15 21:00:00 10.8 0 Calma 10 Sudoeste 0 -- -- 70
2019-10-15 20:00:00 13.3 7 Sudoeste 23 Sudoeste 0 -- -- 57
2019-10-15 19:00:00 15.1 15 Sur 28 Sur 0 -- -- 51
2019-10-15 18:00:00 17.7 9 Sudoeste 19 Sudoeste 0 -- -- 44
2019-10-15 17:00:00 17.9 9 Sudoeste 19 Sudoeste 0 -- -- 42
2019-10-15 16:00:00 17.3 10 Sudoeste 18 Sudoeste 0 -- -- 46
2019-10-15 15:00:00 16.5 6 Sudoeste 22 Sur 0 -- -- 45
2019-10-15 14:00:00 15.5 9 Sudoeste 23 Oeste 0 -- -- 50
2019-10-15 13:00:00 14 4 Oeste 21 Sur 0 -- -- 59
2019-10-15 12:00:00 12.6 10 Sudoeste 18 Sudoeste 0 -- -- 61
2019-10-15 11:00:00 11.3 12 Sudoeste 22 Sudoeste 0 -- -- 67
2019-10-15 10:00:00 10 10 Sudoeste 15 Sudoeste 0 -- -- 70
2019-10-15 09:00:00 7.9 6 Sudoeste 10 Sudoeste 0 -- -- 80
2019-10-15 08:00:00 8.5 10 Sudoeste 22 Sudoeste 0 -- -- 75
2019-10-15 07:00:00 8.6 5 Sudoeste 12 Sur 0 -- -- 78
2019-10-15 06:00:00 9 6 Sudoeste 14 Sur 0 -- -- 82
2019-10-15 05:00:00 9.8 7 Sudoeste 27 Sudoeste 0 -- -- 81
2019-10-15 04:00:00 10.2 12 Sudoeste 22 Sudoeste 0 -- -- 84
2019-10-15 03:00:00 10.8 12 Sudoeste 21 Sudoeste 0 -- -- 84
2019-10-15 02:00:00 11.5 3 Oeste 9 Sudoeste 0.4 -- -- 93
2019-10-15 01:00:00 11.8 5 Sudoeste 13 Sur 0 -- -- 89
2019-10-15 00:00:00 11.6 5 Sudoeste 10 Nordeste 0 -- -- 96
2019-10-14 23:00:00 11.8 6 Nordeste 10 Nordeste 0 -- -- 96
2019-10-14 22:00:00 12.5 5 Nordeste 12 Este 0 -- -- 95
2019-10-14 21:00:00 12.8 8 Nordeste 23 Sudoeste 11 -- -- 95
2019-10-14 20:00:00 14.7 20 Sur 48 Sur 7.6 -- -- 86
2019-10-14 19:00:00 16.5 14 Este 25 Nordeste 0 -- -- 79
2019-10-14 18:00:00 17.9 12 Nordeste 21 Nordeste 0 -- -- 79
2019-10-14 17:00:00 17.7 9 Nordeste 19 Este 0 -- -- 83
2019-10-14 16:00:00 16.1 7 Nordeste 20 Nordeste 1.4 -- -- 95
2019-10-14 15:00:00 16.2 4 Este 11 Este 0.4 -- -- 93
2019-10-14 14:00:00 16.3 3 Este 9 Este 1.6 -- -- 91
2019-10-14 13:00:00 16.7 6 Sur 24 Sudoeste 0.2 -- -- 85
2019-10-14 12:00:00 18.5 13 Nordeste 26 Este 0 -- -- 71
2019-10-14 11:00:00 18.1 11 Nordeste 23 Este 0 -- -- 70
2019-10-14 10:00:00 17.1 10 Nordeste 23 Nordeste 0 -- -- 73
2019-10-14 09:00:00 13 5 Norte 12 Nordeste 0 -- -- 87
2019-10-14 08:00:00 12.4 4 Norte 15 Nordeste 0 -- -- 89
2019-10-14 07:00:00 13.4 4 Nordeste 22 Nordeste 0 -- -- 88
2019-10-14 06:00:00 15 12 Nordeste 24 Nordeste 0 -- -- 85
2019-10-14 05:00:00 15.7 12 Nordeste 21 Este 0 -- -- 82
2019-10-14 04:00:00 13.7 7 Nordeste 14 Nordeste 0 -- -- 87
2019-10-14 03:00:00 14.7 10 Nordeste 17 Nordeste 0 -- -- 85
2019-10-14 02:00:00 16.6 7 Este 15 Este 0 -- -- 80
2019-10-14 01:00:00 16.8 8 Este 16 Este 0 -- -- 80
2019-10-14 00:00:00 18.4 5 Nordeste 15 Sudeste 0 -- -- 76
2019-10-13 23:00:00 18.8 9 Sudeste 20 Sudeste 0 -- -- 76
2019-10-13 22:00:00 19.4 10 Sudeste 26 Sudeste 0 -- -- 75
2019-10-13 21:00:00 20.4 13 Este 35 Sudeste 0 -- -- 70
2019-10-13 20:00:00 22.1 14 Sudeste 30 Sudeste 0 -- -- 58
2019-10-13 19:00:00 23.8 5 Sudeste 17 Este 0 -- -- 49
2019-10-13 18:00:00 25.5 9 Este 18 Este 0 -- -- 44
2019-10-13 17:00:00 25.1 6 Este 14 Sudeste 0 -- -- 45
2019-10-13 16:00:00 24.9 5 Nordeste 15 Nordeste 0 -- -- 46
2019-10-13 15:00:00 24.1 5 Nordeste 15 Nordeste 0 -- -- 48
2019-10-13 14:00:00 23.3 9 Nordeste 15 Norte 0 -- -- 53
2019-10-13 13:00:00 22.2 5 Nordeste 19 Este 0 -- -- 57
2019-10-13 12:00:00 20.6 11 Este 27 Este 0 -- -- 63
2019-10-13 11:00:00 20.1 13 Este 25 Este 0 -- -- 65
2019-10-13 10:00:00 18.6 9 Nordeste 20 Este 0 -- -- 70
2019-10-13 09:00:00 16.3 9 Nordeste 18 Nordeste 0 -- -- 81
2019-10-13 08:00:00 14.4 4 Nordeste 10 Este 0 -- -- 88
2019-10-13 07:00:00 13.5 5 Nordeste 10 Nordeste 0 -- -- 91
2019-10-13 06:00:00 13.4 8 Nordeste 11 Nordeste 0 -- -- 89
2019-10-13 05:00:00 13.6 9 Nordeste 16 Nordeste 0 -- -- 88
2019-10-13 04:00:00 13.7 4 Este 9 Nordeste 0 -- -- 87
2019-10-13 03:00:00 14.6 4 Sudeste 11 Nordeste 0 -- -- 84
2019-10-13 02:00:00 15.8 6 Nordeste 18 Nordeste 0 -- -- 80
2019-10-13 01:00:00 16 10 Nordeste 17 Nordeste 0 -- -- 82
2019-10-13 00:00:00 15.7 4 Nordeste 11 Nordeste 0 -- -- 80
2019-10-12 23:00:00 17.9 5 Este 10 Este 0 -- -- 73
2019-10-12 22:00:00 18.6 5 Nordeste 16 Sudeste 0 -- -- 71
2019-10-12 21:00:00 20 8 Sudeste 18 Este 0 -- -- 68
2019-10-12 20:00:00 21.6 8 Sudeste 23 Sudeste 0 -- -- 60
2019-10-12 19:00:00 23.1 9 Sudeste 22 Sudeste 0 -- -- 54
2019-10-12 18:00:00 24.3 7 Sudeste 20 Nordeste 0 -- -- 51
2019-10-12 17:00:00 24.7 8 Nordeste 23 Nordeste 0 -- -- 49
2019-10-12 16:00:00 25 8 Nordeste 22 Nordeste 0 -- -- 48
2019-10-12 15:00:00 24.9 12 Nordeste 26 Nordeste 0 -- -- 48
2019-10-12 14:00:00 24.8 10 Nordeste 22 Nordeste 0 -- -- 50
2019-10-12 13:00:00 24 12 Nordeste 27 Nordeste 0 -- -- 53
2019-10-12 12:00:00 21.1 14 Nordeste 29 Este 0 -- -- 65
2019-10-12 11:00:00 19.1 13 Este 24 Este 0 -- -- 73
2019-10-12 10:00:00 16.4 3 Norte 5 Norte 0 -- -- 83
2019-10-12 09:00:00 14.1 0 Calma 8 Nordeste 0 -- -- 91
2019-10-12 08:00:00 13.5 5 Nordeste 9 Nordeste 0 -- -- 89
2019-10-12 07:00:00 13.3 4 Noroeste 8 Oeste 0 -- -- 90
2019-10-12 06:00:00 13.2 3 Este 13 Nordeste 0 -- -- 90
2019-10-12 05:00:00 13.1 6 Nordeste 9 Este 0 -- -- 89
2019-10-12 04:00:00 13.1 3 Nordeste 7 Este 0 -- -- 89
2019-10-12 03:00:00 13.6 5 Este 11 Este 0 -- -- 87
2019-10-12 02:00:00 14.2 4 Sudeste 7 Sudeste 0 -- -- 86
2019-10-12 01:00:00 15.3 4 Este 7 Este 0 -- -- 81
2019-10-12 00:00:00 15.9 3 Este 8 Nordeste 0 -- -- 78
2019-10-11 23:00:00 16.8 5 Nordeste 14 Nordeste 0 -- -- 75
2019-10-11 22:00:00 17.5 6 Este 13 Nordeste 0 -- -- 72
2019-10-11 21:00:00 18.1 2 Sur 10 Nordeste 0 -- -- 73
2019-10-11 20:00:00 20.4 2 Sudoeste 10 Sudoeste 0 -- -- 66
2019-10-11 19:00:00 23.2 8 Sudoeste 13 Sudoeste 0 -- -- 56
2019-10-11 18:00:00 25.8 8 Oeste 17 Oeste 0 -- -- 47
2019-10-11 17:00:00 26.6 4 Sur 23 Oeste 0 -- -- 44
2019-10-11 16:00:00 25.8 12 Oeste 21 Oeste 0 -- -- 44
2019-10-11 15:00:00 24.7 10 Oeste 18 Oeste 0 -- -- 43
2019-10-11 14:00:00 22.9 6 Oeste 14 Sudoeste 0 -- -- 41
2019-10-11 13:00:00 21.1 3 Sudoeste 12 Oeste 0 -- -- 39
2019-10-11 12:00:00 18.8 3 Oeste 8 Oeste 0 -- -- 46
2019-10-11 11:00:00 15 2 Sur 12 Sudoeste 0 -- -- 57
2019-10-11 10:00:00 11.3 7 Sudoeste 10 Sudoeste 0 -- -- 70
2019-10-11 09:00:00 8.2 6 Nordeste 10 Este 0 -- -- 82
2019-10-11 08:00:00 5.9 0 Calma 8 Este 0 -- -- 86
2019-10-11 07:00:00 6.8 5 Este 9 Nordeste 0 -- -- 85
2019-10-11 06:00:00 5.9 0 Calma 6 Sur 0 -- -- 86
2019-10-11 05:00:00 6.5 2 Este 8 Este 0 -- -- 85
2019-10-11 04:00:00 7.4 2 Este 8 Este 0 -- -- 80
2019-10-11 03:00:00 7.8 3 Sudeste 10 Nordeste 0 -- -- 77
2019-10-11 02:00:00 9 5 Nordeste 11 Nordeste 0 -- -- 74
2019-10-11 01:00:00 9.2 5 Este 9 Este 0 -- -- 72
2019-10-11 00:00:00 9.7 6 Este 10 Este 0 -- -- 70
2019-10-10 23:00:00 10.6 5 Este 12 Nordeste 0 -- -- 66
2019-10-10 22:00:00 11.7 6 Este 10 Nordeste 0 -- -- 62
2019-10-10 21:00:00 12.3 2 Este 9 Sur 0 -- -- 60
2019-10-10 20:00:00 15.8 5 Sur 12 Sudoeste 0 -- -- 49
2019-10-10 19:00:00 18.7 10 Sudoeste 19 Oeste 0 -- -- 41
2019-10-10 18:00:00 20.8 11 Sudoeste 22 Oeste 0 -- -- 38
2019-10-10 17:00:00 21.4 15 Oeste 24 Sudoeste 0 -- -- 36
2019-10-10 16:00:00 21.1 15 Oeste 26 Oeste 0 -- -- 39
2019-10-10 15:00:00 21.1 16 Oeste 24 Oeste 0 -- -- 40
2019-10-10 14:00:00 20.2 10 Oeste 17 Sur 0 -- -- 42
2019-10-10 13:00:00 18.7 9 Sudoeste 21 Sudoeste 0 -- -- 46
2019-10-10 12:00:00 16.4 8 Oeste 13 Oeste 0 -- -- 57
2019-10-10 11:00:00 14 7 Oeste 12 Oeste 0 -- -- 69
2019-10-10 10:00:00 10.6 0 Calma 6 Nordeste 0 -- -- 85
2019-10-10 09:00:00 7.4 4 Nordeste 10 Sudeste 0 -- -- 94
2019-10-10 08:00:00 6.2 2 Nordeste 8 Este 0 -- -- 92
2019-10-10 07:00:00 6.9 3 Este 7 Sudeste 0 -- -- 93
2019-10-10 06:00:00 7.7 6 Sudeste 8 Sudeste 0 -- -- 93
2019-10-10 05:00:00 7.8 3 Nordeste 6 Sudeste 0 -- -- 91
2019-10-10 04:00:00 8.2 0 Calma 8 Sudeste 0 -- -- 89
2019-10-10 03:00:00 9.1 0 Calma 9 Este 0 -- -- 85
2019-10-10 02:00:00 10.7 5 Sudeste 12 Este 0 -- -- 81
2019-10-10 01:00:00 11.9 6 Este 9 Nordeste 0 -- -- 77
2019-10-10 00:00:00 12.4 4 Sudeste 10 Este 0 -- -- 74
2019-10-09 23:00:00 13.9 5 Este 9 Este 0 -- -- 69
2019-10-09 22:00:00 15.4 7 Nordeste 10 Nordeste 0 -- -- 64
2019-10-09 21:00:00 17.1 2 Sudeste 14 Sur 0 -- -- 59
2019-10-09 20:00:00 19.7 8 Sur 19 Sur 0 -- -- 52
2019-10-09 19:00:00 22 7 Sur 20 Sudoeste 0 -- -- 49
2019-10-09 18:00:00 23.3 10 Sudoeste 28 Sudoeste 0 -- -- 52
2019-10-09 17:00:00 23.7 15 Sudoeste 25 Sudoeste 0 -- -- 52
2019-10-09 16:00:00 23.8 14 Sudoeste 23 Sur 0 -- -- 52
2019-10-09 15:00:00 23.7 15 Sudoeste 25 Oeste 0 -- -- 53
2019-10-09 14:00:00 23 11 Sudoeste 24 Sudoeste 0 -- -- 57
2019-10-09 13:00:00 22.2 9 Sudoeste 16 Sudoeste 0 -- -- 57
2019-10-09 12:00:00 20.4 9 Oeste 13 Oeste 0 -- -- 57
2019-10-09 11:00:00 17.1 4 Oeste 8 Sudoeste 0 -- -- 62
2019-10-09 10:00:00 13.9 3 Norte 6 Sudeste 0 -- -- 74
2019-10-09 09:00:00 10.9 4 Este 8 Sudeste 0 -- -- 84
2019-10-09 08:00:00 10.4 3 Sudoeste 9 Sudeste 0 -- -- 82
2019-10-09 07:00:00 11 6 Este 9 Sudeste 0 -- -- 83
2019-10-09 06:00:00 10.9 5 Este 8 Este 0 -- -- 82
2019-10-09 05:00:00 11.2 0 Calma 11 Este 0 -- -- 79
2019-10-09 04:00:00 12.2 7 Sudeste 10 Sudeste 0 -- -- 76
2019-10-09 03:00:00 12.7 3 Este 9 Nordeste 0 -- -- 73
2019-10-09 02:00:00 13.2 4 Este 9 Este 0 -- -- 70
2019-10-09 01:00:00 13.2 4 Nordeste 10 Nordeste 0 -- -- 70
2019-10-09 00:00:00 14.4 6 Este 10 Nordeste 0 -- -- 64
2019-10-08 23:00:00 15.5 6 Este 12 Este 0 -- -- 61
2019-10-08 22:00:00 16.6 3 Nordeste 12 Nordeste 0 -- -- 56
2019-10-08 21:00:00 16.6 2 Nordeste 6 Este 0 -- -- 56
2019-10-08 20:00:00 20.2 4 Sur 16 Sudoeste 0 -- -- 45
2019-10-08 19:00:00 23.3 10 Sudoeste 18 Sudoeste 0 -- -- 37
2019-10-08 18:00:00 25.4 14 Oeste 20 Sudoeste 0 -- -- 35
2019-10-08 17:00:00 25.9 13 Oeste 21 Oeste 0 -- -- 34
2019-10-08 16:00:00 25.5 13 Oeste 24 Oeste 0 -- -- 32
2019-10-08 15:00:00 25 16 Oeste 24 Oeste 0 -- -- 31
2019-10-08 14:00:00 24.5 6 Sudoeste 17 Sudoeste 0 -- -- 31
2019-10-08 13:00:00 22.9 7 Oeste 14 Noroeste 0 -- -- 34
2019-10-08 12:00:00 20.6 7 Oeste 13 Oeste 0 -- -- 43
2019-10-08 11:00:00 17.9 6 Sudoeste 10 Sudoeste 0 -- -- 52
2019-10-08 10:00:00 14.6 2 Nordeste 9 Este 0 -- -- 61
2019-10-08 09:00:00 11.1 6 Nordeste 10 Nordeste 0 -- -- 73
2019-10-08 08:00:00 9.4 4 Nordeste 8 Nordeste 0 -- -- 77
2019-10-08 07:00:00 9.8 3 Este 8 Este 0 -- -- 75
2019-10-08 06:00:00 10.3 4 Sudeste 11 Sur 0 -- -- 73
2019-10-08 05:00:00 11.4 4 Este 9 Este 0 -- -- 68
2019-10-08 04:00:00 11.4 4 Este 10 Este 0 -- -- 67
2019-10-08 03:00:00 11.3 3 Este 8 Este 0 -- -- 67
2019-10-08 02:00:00 12.3 3 Nordeste 13 Nordeste 0 -- -- 62
2019-10-08 01:00:00 13 5 Nordeste 14 Este 0 -- -- 58
2019-10-08 00:00:00 13.5 6 Este 10 Este 0 -- -- 56
2019-10-07 23:00:00 14.4 2 Nordeste 10 Este 0 -- -- 53
2019-10-07 22:00:00 14.5 3 Nordeste 8 Nordeste 0 -- -- 53
2019-10-07 21:00:00 16.4 3 Este 8 Sur 0 -- -- 47
2019-10-07 20:00:00 18.1 0 Calma 10 Este 0 -- -- 43
2019-10-07 19:00:00 21.7 5 Sur 8 Sudoeste 0 -- -- 36
2019-10-07 18:00:00 23.3 0 Calma 12 Sudoeste 0 -- -- 32
2019-10-07 17:00:00 23.5 9 Sudoeste 23 Oeste 0 -- -- 31
2019-10-07 16:00:00 22.8 13 Oeste 21 Oeste 0 -- -- 31
2019-10-07 15:00:00 22.4 12 Sudoeste 22 Sudoeste 0 -- -- 26
2019-10-07 14:00:00 21.3 10 Oeste 20 Oeste 0 -- -- 29
2019-10-07 13:00:00 19.5 11 Oeste 17 Sudoeste 0 -- -- 33
2019-10-07 12:00:00 16.9 9 Oeste 13 Oeste 0 -- -- 41
2019-10-07 11:00:00 11.1 4 Sudoeste 6 Sudoeste 0 -- -- 61
2019-10-07 10:00:00 8.3 4 Este 8 Sudeste 0 -- -- 71
2019-10-07 09:00:00 7 3 Sudeste 10 Nordeste 0 -- -- 78
2019-10-07 08:00:00 5.9 0 Calma 10 Sur 0 -- -- 83
2019-10-07 07:00:00 7.1 2 Nordeste 10 Este 0 -- -- 80
2019-10-07 06:00:00 8.1 4 Este 12 Sudeste 0 -- -- 78
2019-10-07 05:00:00 8.7 6 Este 9 Este 0 -- -- 80
2019-10-07 04:00:00 9.2 2 Nordeste 10 Nordeste 0 -- -- 77
2019-10-07 03:00:00 10.1 6 Este 9 Nordeste 0 -- -- 79
2019-10-07 02:00:00 11 4 Sudeste 7 Nordeste 0 -- -- 76
2019-10-07 01:00:00 12.1 3 Sudeste 10 Este 0 -- -- 72
2019-10-07 00:00:00 13.1 3 Nordeste 11 Nordeste 0 -- -- 70
2019-10-06 23:00:00 15.1 5 Oeste 12 Sur 0 -- -- 61
2019-10-06 22:00:00 17.3 6 Sudoeste 19 Sudoeste 0 -- -- 54
2019-10-06 21:00:00 18.5 10 Sur 17 Sudoeste 0 -- -- 51
2019-10-06 20:00:00 19.9 10 Sudoeste 17 Sudoeste 0 -- -- 49
2019-10-06 19:00:00 23.3 2 Norte 14 Sudoeste 0 -- -- 42
2019-10-06 18:00:00 23.1 11 Sudoeste 20 Sur 0 -- -- 40
2019-10-06 17:00:00 22.3 11 Sudoeste 23 Sur 0 -- -- 42
2019-10-06 16:00:00 21.8 13 Sudoeste 28 Sudoeste 0 -- -- 45
2019-10-06 15:00:00 21.4 13 Sudoeste 25 Oeste 0 -- -- 51
2019-10-06 14:00:00 20.1 15 Oeste 29 Oeste 0 -- -- 60
2019-10-06 13:00:00 19.8 12 Oeste 19 Sudoeste 0 -- -- 59
2019-10-06 12:00:00 17.8 9 Sudoeste 14 Oeste 0 -- -- 68
2019-10-06 11:00:00 14.9 4 Oeste 7 Sudoeste 0 -- -- 71
2019-10-06 10:00:00 12.7 0 Calma 6 Este 0 -- -- 80
2019-10-06 09:00:00 8.4 0 Calma 10 Sur 0 -- -- 93
2019-10-06 08:00:00 7.7 3 Nordeste 8 Este 0 -- -- 93
2019-10-06 07:00:00 8.3 2 Nordeste 8 Sudeste 0 -- -- 91
2019-10-06 06:00:00 8.7 2 Sudeste 10 Sudeste 0 -- -- 89
2019-10-06 05:00:00 9.8 2 Norte 8 Sudeste 0 -- -- 83
2019-10-06 04:00:00 10.1 2 Este 8 Nordeste 0 -- -- 85
2019-10-06 03:00:00 11.2 4 Nordeste 9 Este 0 -- -- 81
2019-10-06 02:00:00 11.9 4 Este 11 Este 0 -- -- 80
2019-10-06 01:00:00 12.1 3 Nordeste 8 Nordeste 0 -- -- 75
2019-10-06 00:00:00 12.5 2 Nordeste 9 Nordeste 0 -- -- 76
2019-10-05 23:00:00 14.2 6 Nordeste 11 Este 0 -- -- 70
2019-10-05 22:00:00 15.3 6 Este 9 Nordeste 0 -- -- 68
2019-10-05 21:00:00 15.9 0 Calma 8 Sudoeste 0 -- -- 64
2019-10-05 20:00:00 19.3 5 Sudoeste 14 Oeste 0 -- -- 54
2019-10-05 19:00:00 22.4 9 Sudoeste 18 Sudoeste 0 -- -- 46
2019-10-05 18:00:00 23.8 12 Sudoeste 22 Sudoeste 0 -- -- 43
2019-10-05 17:00:00 23.9 15 Oeste 27 Oeste 0 -- -- 44
2019-10-05 16:00:00 23.8 16 Oeste 28 Oeste 0 -- -- 45
2019-10-05 15:00:00 23.8 18 Oeste 30 Oeste 0 -- -- 46
2019-10-05 14:00:00 23.2 12 Oeste 21 Oeste 0 -- -- 48
2019-10-05 13:00:00 21.7 5 Oeste 16 Oeste 0 -- -- 52
2019-10-05 12:00:00 19.5 7 Oeste 13 Oeste 0 -- -- 58
2019-10-05 11:00:00 17.2 6 Oeste 10 Oeste 0 -- -- 65
2019-10-05 10:00:00 13.9 2 Sudeste 4 Este 0 -- -- 76
2019-10-05 09:00:00 9.7 2 Nordeste 7 Nordeste 0 -- -- 91
2019-10-05 08:00:00 8.9 2 Nordeste 8 Nordeste 0 -- -- 89
2019-10-05 07:00:00 9.4 4 Este 6 Este 0 -- -- 91
2019-10-05 06:00:00 9.9 5 Sudeste 9 Sudeste 0 -- -- 88
2019-10-05 05:00:00 10.8 7 Este 10 Este 0 -- -- 85
2019-10-05 04:00:00 11.6 3 Este 9 Sudeste 0 -- -- 82
2019-10-05 03:00:00 11.6 4 Este 9 Sudeste 0 -- -- 80
2019-10-05 02:00:00 12.5 8 Este 14 Nordeste 0 -- -- 78
2019-10-05 01:00:00 13.7 5 Este 12 Nordeste 0 -- -- 74
2019-10-05 00:00:00 14 4 Este 9 Este 0 -- -- 74
2019-10-04 23:00:00 15.1 7 Nordeste 13 Nordeste 0 -- -- 72
2019-10-04 22:00:00 16.6 0 Calma 9 Sudoeste 0 -- -- 66
2019-10-04 21:00:00 19.6 4 Sudoeste 21 Sur 0 -- -- 56
2019-10-04 20:00:00 22.1 8 Sudoeste 17 Sudoeste 0 -- -- 50
2019-10-04 19:00:00 24.5 6 Sudoeste 26 Oeste 0 -- -- 45
2019-10-04 18:00:00 25.4 12 Sudoeste 26 Oeste 0 -- -- 43
2019-10-04 17:00:00 24.7 12 Sudoeste 23 Sudoeste 0 -- -- 42
2019-10-04 16:00:00 24.5 13 Sudoeste 26 Sudoeste 0 -- -- 36
2019-10-04 15:00:00 24.1 14 Oeste 28 Sudoeste 0 -- -- 36
2019-10-04 14:00:00 22.8 11 Sudoeste 26 Sudoeste 0 -- -- 35
2019-10-04 13:00:00 21.6 15 Oeste 24 Oeste 0 -- -- 37
2019-10-04 12:00:00 18.5 13 Sudoeste 18 Sudoeste 0 -- -- 46
2019-10-04 11:00:00 15.9 8 Oeste 11 Oeste 0 -- -- 54
2019-10-04 10:00:00 12.4 4 Sudeste 7 Sur 0 -- -- 65
2019-10-04 09:00:00 8.2 3 Este 9 Sudeste 0 -- -- 79
2019-10-04 08:00:00 7.1 4 Sudeste 8 Sudeste 0 -- -- 80
2019-10-04 07:00:00 7.4 2 Nordeste 10 Este 0 -- -- 78
2019-10-04 06:00:00 7.5 5 Este 9 Nordeste 0 -- -- 80
2019-10-04 05:00:00 8 3 Nordeste 9 Nordeste 0 -- -- 76
2019-10-04 04:00:00 9.2 3 Este 11 Nordeste 0 -- -- 72
2019-10-04 03:00:00 9.3 4 Nordeste 10 Este 0 -- -- 73
2019-10-04 02:00:00 10.1 3 Nordeste 9 Nordeste 0 -- -- 69
2019-10-04 01:00:00 10.1 2 Sudeste 7 Este 0 -- -- 69
2019-10-04 00:00:00 12.6 5 Nordeste 10 Nordeste 0 -- -- 61
2019-10-03 23:00:00 13.2 6 Este 10 Este 0 -- -- 61
2019-10-03 22:00:00 14.1 7 Este 11 Nordeste 0 -- -- 57
2019-10-03 21:00:00 14.7 5 Nordeste 10 Norte 0 -- -- 55
2019-10-03 20:00:00 16.8 2 Sur 6 Oeste 0 -- -- 50
2019-10-03 19:00:00 22.1 6 Sudoeste 15 Sudoeste 0 -- -- 37
2019-10-03 18:00:00 22.8 13 Sudoeste 23 Oeste 0 -- -- 35
2019-10-03 17:00:00 23.2 14 Sudoeste 23 Oeste 0 -- -- 34
2019-10-03 16:00:00 22.9 12 Sudoeste 24 Oeste 0 -- -- 33
2019-10-03 15:00:00 22.1 12 Sudoeste 25 Oeste 0 -- -- 30
2019-10-03 14:00:00 21.2 14 Oeste 22 Oeste 0 -- -- 33
2019-10-03 13:00:00 18.7 9 Oeste 15 Sudoeste 0 -- -- 37
2019-10-03 12:00:00 15.5 5 Oeste 9 Oeste 0 -- -- 48
2019-10-03 11:00:00 11.9 2 Norte 5 Norte 0 -- -- 55
2019-10-03 10:00:00 9.4 2 Oeste 6 Oeste 0 -- -- 62
2019-10-03 09:00:00 6.7 3 Sudeste 6 Sudeste 0 -- -- 73
2019-10-03 08:00:00 7 5 Este 10 Este 0 -- -- 66
2019-10-03 07:00:00 6.8 0 Calma 6 Este 0 -- -- 67
2019-10-03 06:00:00 7 3 Este 13 Este 0 -- -- 69
2019-10-03 05:00:00 8 4 Nordeste 14 Este 0 -- -- 63
2019-10-03 04:00:00 8.9 5 Nordeste 13 Nordeste 0 -- -- 60
2019-10-03 03:00:00 9.8 4 Nordeste 9 Sudeste 0 -- -- 59
2019-10-03 02:00:00 9.5 0 Calma 11 Este 0 -- -- 61
2019-10-03 01:00:00 10.2 4 Este 8 Este 0 -- -- 61
2019-10-03 00:00:00 10.5 3 Norte 12 Norte 0 -- -- 60
2019-10-02 23:00:00 11.7 2 Norte 10 Sudeste 0 -- -- 59
2019-10-02 22:00:00 14.9 4 Sur 15 Sur 0 -- -- 52
2019-10-02 21:00:00 17.8 8 Sudoeste 15 Sudoeste 0 -- -- 45
2019-10-02 20:00:00 19.9 3 Nordeste 10 Este 0 -- -- 35
2019-10-02 19:00:00 23.2 7 Nordeste 19 Nordeste 0 -- -- 28
2019-10-02 18:00:00 25.1 11 Oeste 24 Oeste 0 -- -- 28
2019-10-02 17:00:00 25.3 14 Sudoeste 26 Sudoeste 0 -- -- 30
2019-10-02 16:00:00 25.6 5 Nordeste 33 Sudoeste 0 -- -- 28
2019-10-02 15:00:00 24.8 15 Oeste 36 Sudoeste 0 -- -- 31
2019-10-02 14:00:00 23.5 15 Sudoeste 27 Sudoeste 0 -- -- 37
2019-10-02 13:00:00 21.6 9 Sudoeste 23 Sudoeste 0 -- -- 42
2019-10-02 12:00:00 19.8 13 Sudoeste 20 Sudoeste 0 -- -- 45
2019-10-02 11:00:00 17.7 7 Sudoeste 15 Sudoeste 0 -- -- 49
2019-10-02 10:00:00 14.1 4 Nordeste 11 Este 0 -- -- 60
2019-10-02 09:00:00 9.7 6 Nordeste 12 Este 0 -- -- 71
2019-10-02 08:00:00 8.7 5 Este 14 Nordeste 0 -- -- 70
2019-10-02 07:00:00 9 6 Este 13 Sudeste 0 -- -- 70
2019-10-02 06:00:00 9.7 4 Este 13 Nordeste 0 -- -- 67
2019-10-02 05:00:00 10.2 8 Este 12 Este 0 -- -- 67
2019-10-02 04:00:00 11.9 4 Nordeste 15 Sudoeste 0 -- -- 62
2019-10-02 03:00:00 12.4 7 Este 13 Sur 0 -- -- 63
2019-10-02 02:00:00 14.6 6 Sudeste 18 Sur 0 -- -- 55
2019-10-02 01:00:00 16.8 13 Sur 22 Sudoeste 0 -- -- 49
2019-10-02 00:00:00 18.6 12 Sudoeste 29 Sudoeste 0 -- -- 46
2019-10-01 23:00:00 20.1 19 Sudoeste 34 Sudoeste 0 -- -- 41
2019-10-01 22:00:00 20.2 13 Sudoeste 33 Oeste 0 -- -- 42
2019-10-01 21:00:00 22.3 21 Oeste 35 Oeste 0 -- -- 39
2019-10-01 20:00:00 22.5 12 Sudoeste 22 Sudoeste 0 -- -- 41
2019-10-01 19:00:00 24.5 11 Sudoeste 30 Oeste 0 -- -- 47
2019-10-01 18:00:00 26.7 17 Sudoeste 31 Sur 0 -- -- 40
2019-10-01 17:00:00 27.1 14 Sudoeste 27 Oeste 0 -- -- 41
2019-10-01 16:00:00 27.9 17 Sudoeste 27 Oeste 0 -- -- 38
2019-10-01 15:00:00 28.1 12 Sudoeste 24 Sudoeste 0 -- -- 33
2019-10-01 14:00:00 27 9 Oeste 18 Sudoeste 0 -- -- 36
2019-10-01 13:00:00 25.4 11 Sudoeste 17 Oeste 0 -- -- 39
2019-10-01 12:00:00 23.2 5 Oeste 12 Oeste 0 -- -- 46
2019-10-01 11:00:00 20.1 9 Sudoeste 13 Oeste 0 -- -- 54
2019-10-01 10:00:00 16.3 3 Nordeste 6 Nordeste 0 -- -- 65
2019-10-01 09:00:00 11.9 3 Sudeste 6 Sur 0 -- -- 82
2019-10-01 08:00:00 10.7 4 Sudeste 8 Nordeste 0 -- -- 83
2019-10-01 07:00:00 11 4 Este 8 Sudeste 0 -- -- 82
2019-10-01 06:00:00 11.1 3 Este 7 Sur 0 -- -- 81
2019-10-01 05:00:00 11.7 4 Este 10 Nordeste 0 -- -- 79
2019-10-01 04:00:00 12.4 4 Nordeste 9 Nordeste 0 -- -- 77
2019-10-01 03:00:00 13.2 5 Este 10 Nordeste 0 -- -- 74
2019-10-01 02:00:00 13.2 4 Este 12 Nordeste 0 -- -- 71
2019-10-01 01:00:00 14.7 6 Este 10 Este 0 -- -- 66
2019-10-01 00:00:00 15.3 5 Nordeste 9 Nordeste 0 -- -- 63
2019-09-30 23:00:00 16.1 3 Nordeste 12 Este 0 -- -- 60
2019-09-30 22:00:00 17 3 Este 7 Norte 0 -- -- 57
2019-09-30 21:00:00 18.6 3 Sur 8 Sur 0 -- -- 52
2019-09-30 20:00:00 22.2 3 Sur 11 Sudoeste 0 -- -- 42
2019-09-30 19:00:00 26.2 7 Sudoeste 21 Oeste 0 -- -- 35
2019-09-30 18:00:00 27.4 14 Sudoeste 28 Oeste 0 -- -- 31
2019-09-30 17:00:00 28.2 17 Sudoeste 29 Oeste 0 -- -- 30
2019-09-30 16:00:00 28.5 14 Sudoeste 27 Sudoeste 0 -- -- 29
2019-09-30 15:00:00 28.3 10 Sudoeste 26 Sudoeste 0 -- -- 31
2019-09-30 14:00:00 27.8 12 Sudoeste 24 Sudoeste 0 -- -- 32
2019-09-30 13:00:00 25.8 9 Oeste 15 Oeste 0 -- -- 35
2019-09-30 12:00:00 23.4 6 Oeste 12 Sudoeste 0 -- -- 41
2019-09-30 11:00:00 20.4 5 Oeste 8 Oeste 0 -- -- 46
2019-09-30 10:00:00 16.8 0 Calma 5 Este 0 -- -- 56
2019-09-30 09:00:00 12.3 2 Nordeste 6 Este 0 -- -- 70
2019-09-30 08:00:00 11 3 Este 10 Sudeste 0 -- -- 71
2019-09-30 07:00:00 11.6 6 Este 10 Este 0 -- -- 69
2019-09-30 06:00:00 11.8 3 Este 10 Este 0 -- -- 68
2019-09-30 05:00:00 11.9 4 Nordeste 12 Nordeste 0 -- -- 68
2019-09-30 04:00:00 13.4 8 Nordeste 13 Este 0 -- -- 63
2019-09-30 03:00:00 13.3 5 Este 10 Nordeste 0 -- -- 64
2019-09-30 02:00:00 14.2 7 Este 10 Este 0 -- -- 61
2019-09-30 01:00:00 14.7 6 Este 13 Nordeste 0 -- -- 61
2019-09-30 00:00:00 16 4 Este 13 Nordeste 0 -- -- 58
2019-09-29 23:00:00 17 6 Este 12 Este 0 -- -- 54
2019-09-29 22:00:00 18.7 7 Nordeste 12 Nordeste 0 -- -- 49
2019-09-29 21:00:00 20.2 4 Este 10 Sudoeste 0 -- -- 45
2019-09-29 20:00:00 23.3 6 Sur 14 Sur 0 -- -- 38
2019-09-29 19:00:00 26.7 11 Sudoeste 32 Sur 0 -- -- 31
2019-09-29 18:00:00 27.7 12 Sudoeste 28 Sudoeste 0 -- -- 32
2019-09-29 17:00:00 28.3 17 Sudoeste 30 Sudoeste 0 -- -- 34
2019-09-29 16:00:00 28.4 14 Sudoeste 26 Sudoeste 0 -- -- 33
2019-09-29 15:00:00 28.4 12 Sudoeste 23 Oeste 0 -- -- 28
2019-09-29 14:00:00 27 11 Sudoeste 22 Sudoeste 0 -- -- 33
2019-09-29 13:00:00 24.9 10 Oeste 18 Oeste 0 -- -- 46
2019-09-29 12:00:00 22.1 7 Sudoeste 12 Oeste 0 -- -- 55
2019-09-29 11:00:00 18.9 2 Noroeste 8 Oeste 0 -- -- 60
2019-09-29 10:00:00 15.6 0 Calma 3 Noroeste 0 -- -- 74
2019-09-29 09:00:00 11.5 2 Nordeste 5 Este 0 -- -- 90
2019-09-29 08:00:00 10.4 3 Este 7 Sudeste 0 -- -- 90
2019-09-29 07:00:00 10.6 5 Sudeste 7 Nordeste 0 -- -- 89
2019-09-29 06:00:00 11.2 5 Este 10 Este 0 -- -- 88
2019-09-29 05:00:00 11.3 3 Nordeste 9 Norte 0 -- -- 84
2019-09-29 04:00:00 12.3 5 Nordeste 11 Este 0 -- -- 80
2019-09-29 03:00:00 12 3 Este 9 Nordeste 0 -- -- 82
2019-09-29 02:00:00 13.1 7 Nordeste 12 Nordeste 0 -- -- 75
2019-09-29 01:00:00 13.1 2 Sudeste 12 Nordeste 0 -- -- 72
2019-09-29 00:00:00 14.4 5 Este 9 Este 0 -- -- 67
2019-09-28 23:00:00 14.5 4 Este 9 Nordeste 0 -- -- 67
2019-09-28 22:00:00 16.4 6 Este 10 Este 0 -- -- 59
2019-09-28 21:00:00 17 2 Noroeste 8 Sur 0 -- -- 57
2019-09-28 20:00:00 20.8 7 Sudoeste 17 Sudoeste 0 -- -- 47
2019-09-28 19:00:00 24.3 10 Sudoeste 18 Sudoeste 0 -- -- 39
2019-09-28 18:00:00 25.9 10 Sur 21 Sudoeste 0 -- -- 36
2019-09-28 17:00:00 26.2 11 Sudoeste 28 Sudoeste 0 -- -- 38
2019-09-28 16:00:00 25.6 13 Sur 21 Sur 0 -- -- 43
2019-09-28 15:00:00 24.6 3 Sudoeste 18 Sur 0 -- -- 44
2019-09-28 14:00:00 24.3 9 Sudoeste 19 Oeste 0 -- -- 50
2019-09-28 13:00:00 22.8 4 Noroeste 15 Oeste 0 -- -- 56
2019-09-28 12:00:00 21.2 4 Noroeste 13 Noroeste 0 -- -- 64
2019-09-28 11:00:00 18.6 5 Oeste 9 Oeste 0 -- -- 51
2019-09-28 10:00:00 15.1 3 Oeste 6 Este 0 -- -- 62
2019-09-28 09:00:00 11.6 3 Este 8 Nordeste 0 -- -- 74
2019-09-28 08:00:00 10 5 Sudeste 8 Este 0 -- -- 79
2019-09-28 07:00:00 10.4 5 Este 9 Nordeste 0 -- -- 75
2019-09-28 06:00:00 10.9 5 Este 9 Nordeste 0 -- -- 73
2019-09-28 05:00:00 10.8 2 Nordeste 8 Sudeste 0 -- -- 72
2019-09-28 04:00:00 12.3 4 Este 10 Nordeste 0 -- -- 66
2019-09-28 03:00:00 13.1 6 Nordeste 12 Nordeste 0 -- -- 64
2019-09-28 02:00:00 13.6 6 Este 14 Nordeste 0 -- -- 62
2019-09-28 01:00:00 13.5 5 Sudeste 9 Sudeste 0 -- -- 62
2019-09-28 00:00:00 15.9 2 Noroeste 17 Este 0 -- -- 54
2019-09-27 23:00:00 17.1 6 Nordeste 16 Nordeste 0 -- -- 49
2019-09-27 22:00:00 18.6 7 Este 12 Nordeste 0 -- -- 44
2019-09-27 21:00:00 21.3 0 Calma 15 Sur 0 -- -- 38
2019-09-27 20:00:00 23.8 9 Sur 16 Sudoeste 0 -- -- 31
2019-09-27 19:00:00 26.1 9 Sudoeste 26 Sur 0 -- -- 30
2019-09-27 18:00:00 27 13 Sudoeste 23 Sudoeste 0 -- -- 35
2019-09-27 17:00:00 27.5 14 Sudoeste 23 Sudoeste 0 -- -- 35
2019-09-27 16:00:00 27.8 11 Sudoeste 23 Sudoeste 0 -- -- 28
2019-09-27 15:00:00 27.3 14 Oeste 22 Oeste 0 -- -- 31
2019-09-27 14:00:00 26.5 13 Oeste 28 Sudoeste 0 -- -- 37
2019-09-27 13:00:00 25.2 8 Sudoeste 18 Oeste 0 -- -- 42
2019-09-27 12:00:00 22.7 8 Oeste 13 Sudoeste 0 -- -- 52
2019-09-27 11:00:00 19.8 9 Sudoeste 14 Sudoeste 0 -- -- 60
2019-09-27 10:00:00 17 5 Noroeste 9 Oeste 0 -- -- 70
2019-09-27 09:00:00 13.3 2 Nordeste 8 Nordeste 0 -- -- 84
2019-09-27 08:00:00 11.4 3 Norte 7 Este 0 -- -- 88
2019-09-27 07:00:00 11.7 2 Nordeste 7 Este 0 -- -- 85
2019-09-27 06:00:00 11.9 3 Este 6 Nordeste 0 -- -- 85
2019-09-27 05:00:00 12.2 3 Nordeste 9 Nordeste 0 -- -- 83
2019-09-27 04:00:00 12.7 4 Nordeste 10 Nordeste 0 -- -- 83
2019-09-27 03:00:00 13.6 5 Nordeste 11 Nordeste 0 -- -- 79
2019-09-27 02:00:00 14.2 6 Este 12 Nordeste 0 -- -- 76
2019-09-27 01:00:00 14.8 4 Este 9 Nordeste 0 -- -- 74
2019-09-27 00:00:00 15.5 2 Sudeste 7 Nordeste 0 -- -- 71
2019-09-26 23:00:00 16.8 4 Este 14 Nordeste 0 -- -- 65
2019-09-26 22:00:00 17.8 7 Nordeste 9 Nordeste 0 -- -- 62
2019-09-26 21:00:00 18.8 0 Calma 8 Sudoeste 0 -- -- 60
2019-09-26 20:00:00 21.9 7 Sudoeste 11 Oeste 0 -- -- 50
2019-09-26 19:00:00 24.8 9 Oeste 17 Sudoeste 0 -- -- 42
2019-09-26 18:00:00 26 7 Sur 21 Sudoeste 0 -- -- 39
2019-09-26 17:00:00 25.8 14 Sudoeste 24 Oeste 0 -- -- 40
2019-09-26 16:00:00 25.7 14 Oeste 25 Oeste 0 -- -- 40
2019-09-26 15:00:00 24.9 14 Oeste 26 Oeste 0 -- -- 42
2019-09-26 14:00:00 24.4 15 Sudoeste 27 Sudoeste 0 -- -- 43
2019-09-26 13:00:00 23.1 16 Oeste 26 Oeste 0 -- -- 46
2019-09-26 12:00:00 20.9 6 Oeste 15 Sudoeste 0 -- -- 52
2019-09-26 11:00:00 18.2 8 Sudoeste 12 Oeste 0 -- -- 59
2019-09-26 10:00:00 15.4 4 Oeste 6 Oeste 0 -- -- 69
2019-09-26 09:00:00 12.1 3 Nordeste 11 Este 0 -- -- 82
2019-09-26 08:00:00 9.8 6 Nordeste 9 Nordeste 0 -- -- 88
2019-09-26 07:00:00 10.1 6 Nordeste 9 Nordeste 0 -- -- 86
2019-09-26 06:00:00 11.1 4 Este 9 Este 0 -- -- 82
2019-09-26 05:00:00 11.5 4 Este 10 Nordeste 0 -- -- 80
2019-09-26 04:00:00 11.7 3 Nordeste 9 Este 0 -- -- 79
2019-09-26 03:00:00 11.9 0 Calma 9 Nordeste 0 -- -- 78
2019-09-26 02:00:00 13.4 4 Sudeste 8 Sur 0 -- -- 73
2019-09-26 01:00:00 14.2 4 Sudeste 8 Nordeste 0 -- -- 70
2019-09-26 00:00:00 14.4 5 Nordeste 8 Nordeste 0 -- -- 68
2019-09-25 23:00:00 15.2 5 Nordeste 10 Nordeste 0 -- -- 65
2019-09-25 22:00:00 16 0 Calma 6 Nordeste 0 -- -- 62
2019-09-25 21:00:00 18.7 4 Sur 11 Sudoeste 0 -- -- 53
2019-09-25 20:00:00 20.2 6 Sur 23 Sur 0 -- -- 48
2019-09-25 19:00:00 21.5 13 Sudoeste 24 Sur 0 -- -- 44
2019-09-25 18:00:00 22.9 13 Sur 25 Sur 0 -- -- 42
2019-09-25 17:00:00 24.1 10 Sur 24 Sudoeste 0 -- -- 39
2019-09-25 16:00:00 24.2 8 Sur 20 Sudoeste 0 -- -- 37
2019-09-25 15:00:00 23.3 11 Oeste 20 Oeste 0 -- -- 39
2019-09-25 14:00:00 22.3 11 Sudoeste 19 Oeste 0 -- -- 45
2019-09-25 13:00:00 21.7 12 Sudoeste 22 Sudoeste 0 -- -- 46
2019-09-25 12:00:00 21.3 12 Sudoeste 27 Sudoeste 0 -- -- 47
2019-09-25 11:00:00 20.1 12 Sudoeste 18 Sudoeste 0 -- -- 51
2019-09-25 10:00:00 18.2 7 Sudoeste 14 Sudoeste 0 -- -- 62
2019-09-25 09:00:00 15 3 Nordeste 12 Sudoeste 0 -- -- 76
2019-09-25 08:00:00 13.2 3 Sudeste 11 Sur 0 -- -- 80
2019-09-25 07:00:00 13.1 4 Sur 8 Sudoeste 0 -- -- 79
2019-09-25 06:00:00 14.2 4 Este 9 Sudeste 0 -- -- 74
2019-09-25 05:00:00 13.9 4 Este 8 Nordeste 0 -- -- 75
2019-09-25 04:00:00 14.6 7 Este 12 Este 0 -- -- 70
2019-09-25 03:00:00 15.1 6 Nordeste 11 Nordeste 0 -- -- 69
2019-09-25 02:00:00 16.1 6 Este 11 Este 0 -- -- 65
2019-09-25 01:00:00 16.5 6 Nordeste 10 Nordeste 0 -- -- 64
2019-09-25 00:00:00 17.4 0 Calma 5 Norte 0 -- -- 62
2019-09-24 23:00:00 20.4 5 Sur 14 Sudoeste 0 -- -- 52
2019-09-24 22:00:00 21.4 9 Sudoeste 15 Sudoeste 0 -- -- 48
2019-09-24 21:00:00 21.2 9 Sudoeste 18 Sur 0 -- -- 50
2019-09-24 20:00:00 23.5 14 Sur 28 Sur 0 -- -- 45
2019-09-24 19:00:00 25.7 13 Sudoeste 32 Sur 0 -- -- 40
2019-09-24 18:00:00 26.7 15 Sudoeste 33 Sur 0 -- -- 37
2019-09-24 17:00:00 26.8 19 Sudoeste 31 Sur 0 -- -- 35
2019-09-24 16:00:00 26.8 15 Sudoeste 38 Sudoeste 0 -- -- 35
2019-09-24 15:00:00 26.5 15 Sudoeste 33 Sudoeste 0 -- -- 35
2019-09-24 14:00:00 25.2 17 Sudoeste 28 Sudoeste 0 -- -- 39
2019-09-24 13:00:00 23.4 16 Sudoeste 26 Sudoeste 0 -- -- 42
2019-09-24 12:00:00 21.1 10 Oeste 15 Oeste 0 -- -- 48
2019-09-24 11:00:00 18 4 Oeste 9 Oeste 0 -- -- 58
2019-09-24 10:00:00 14.9 4 Noroeste 8 Sudeste 0 -- -- 68
2019-09-24 09:00:00 11.3 3 Nordeste 6 Sudeste 0 -- -- 79
2019-09-24 08:00:00 10.2 3 Este 8 Este 0 -- -- 82
2019-09-24 07:00:00 10.7 4 Este 8 Este 0 -- -- 81
2019-09-24 06:00:00 10.5 5 Sur 7 Sur 0 -- -- 82
2019-09-24 05:00:00 11.1 3 Nordeste 7 Sudeste 0 -- -- 79
2019-09-24 04:00:00 10.8 0 Calma 6 Este 0 -- -- 79
2019-09-24 03:00:00 11.6 3 Sudeste 9 Este 0 -- -- 75
2019-09-24 02:00:00 11.6 2 Sur 10 Nordeste 0 -- -- 75
2019-09-24 01:00:00 12.9 5 Este 9 Nordeste 0 -- -- 69
2019-09-24 00:00:00 13.6 4 Este 17 Nordeste 0 -- -- 65
2019-09-23 23:00:00 14.9 3 Nordeste 11 Nordeste 0 -- -- 61
2019-09-23 22:00:00 15.3 2 Nordeste 5 Nordeste 0 -- -- 60
2019-09-23 21:00:00 18.3 3 Norte 14 Sudoeste 0 -- -- 49
2019-09-23 20:00:00 19.6 8 Sudoeste 21 Sudoeste 0 -- -- 44
2019-09-23 19:00:00 20.9 12 Sudoeste 28 Sudoeste 0 -- -- 41
2019-09-23 18:00:00 22.1 17 Sudoeste 29 Sudoeste 0 -- -- 38
2019-09-23 17:00:00 22.9 14 Sudoeste 25 Sur 0 -- -- 37
2019-09-23 16:00:00 22.8 15 Sudoeste 30 Sudoeste 0 -- -- 37
2019-09-23 15:00:00 22.1 12 Sudoeste 27 Sudoeste 0 -- -- 39
2019-09-23 14:00:00 21.8 12 Sudoeste 27 Oeste 0 -- -- 39
2019-09-23 13:00:00 21.1 7 Sudoeste 18 Sudoeste 0 -- -- 39
2019-09-23 12:00:00 19.2 9 Sudoeste 15 Oeste 0 -- -- 51
2019-09-23 11:00:00 16.2 4 Oeste 8 Oeste 0 -- -- 71
2019-09-23 10:00:00 13.1 3 Noroeste 5 Noroeste 0 -- -- 83
2019-09-23 09:00:00 9.4 3 Nordeste 7 Nordeste 0 -- -- 96
2019-09-23 08:00:00 8.8 2 Nordeste 5 Nordeste 0 -- -- 95
2019-09-23 07:00:00 8.3 0 Calma 8 Este 0 -- -- 92
2019-09-23 06:00:00 8.5 4 Este 8 Este 0 -- -- 93
2019-09-23 05:00:00 9.5 3 Este 7 Este 0 -- -- 91
2019-09-23 04:00:00 9.2 3 Este 6 Norte 0 -- -- 90
2019-09-23 03:00:00 10.1 2 Nordeste 8 Este 0 -- -- 86
2019-09-23 02:00:00 11.5 4 Nordeste 10 Nordeste 0 -- -- 83
2019-09-23 01:00:00 12.2 0 Calma 8 Este 0 -- -- 82
2019-09-23 00:00:00 13.6 4 Este 10 Este 0 -- -- 77
2019-09-22 23:00:00 15.7 2 Oeste 17 Sur 0 -- -- 68
2019-09-22 22:00:00 17.6 8 Sur 14 Sur 0 -- -- 62
2019-09-22 21:00:00 18.9 8 Sudoeste 14 Sur 0 -- -- 61
2019-09-22 20:00:00 20.5 8 Sudoeste 15 Sudoeste 0 -- -- 60
2019-09-22 19:00:00 22.4 7 Oeste 18 Noroeste 0 -- -- 58
2019-09-22 18:00:00 22.9 9 Oeste 23 Sudoeste 0 -- -- 57
2019-09-22 17:00:00 23.6 12 Sudoeste 27 Sudoeste 0 -- -- 54
2019-09-22 16:00:00 22.2 15 Sudoeste 27 Sudoeste 0 -- -- 63
2019-09-22 15:00:00 22.9 12 Sur 24 Sudoeste 0 -- -- 60
2019-09-22 14:00:00 22.2 13 Sudoeste 25 Sudoeste 0 -- -- 63
2019-09-22 13:00:00 22 12 Sudoeste 23 Sudoeste 0 -- -- 64
2019-09-22 12:00:00 21.4 9 Oeste 24 Sudoeste 0 -- -- 69
2019-09-22 11:00:00 20.1 3 Oeste 9 Oeste 0 -- -- 77
2019-09-22 10:00:00 18 2 Oeste 5 Sudoeste 0 -- -- 86
2019-09-22 09:00:00 16.9 2 Norte 5 Sur 0 -- -- 92
2019-09-22 08:00:00 16.5 3 Oeste 5 Oeste 0 -- -- 92
2019-09-22 07:00:00 16.9 3 Nordeste 8 Sur 0 -- -- 89
2019-09-22 06:00:00 17.1 4 Oeste 10 Nordeste 0 -- -- 88
2019-09-22 05:00:00 17.8 4 Norte 17 Este 0 -- -- 81
2019-09-22 04:00:00 17.9 9 Este 15 Nordeste 0 -- -- 80
2019-09-22 03:00:00 17.5 5 Nordeste 12 Nordeste 0 -- -- 80
2019-09-22 02:00:00 18.2 4 Nordeste 7 Nordeste 0 -- -- 76
2019-09-22 01:00:00 18.8 0 Calma 12 Oeste 0 -- -- 72
2019-09-22 00:00:00 19.3 4 Norte 18 Sudeste 0 -- -- 68
2019-09-21 23:00:00 18.4 3 Nordeste 19 Nordeste 0 -- -- 71
2019-09-21 22:00:00 18.5 5 Noroeste 8 Oeste 0 -- -- 70
2019-09-21 21:00:00 20.5 3 Noroeste 15 Este 0 -- -- 63
2019-09-21 20:00:00 21.7 4 Sudoeste 14 Sudoeste 0 -- -- 55
2019-09-21 19:00:00 23.1 6 Sudoeste 14 Sudoeste 0 -- -- 51
2019-09-21 18:00:00 25.6 3 Noroeste 9 Sudoeste 0 -- -- 46
2019-09-21 17:00:00 24.6 3 Oeste 11 Oeste 0 -- -- 51
2019-09-21 16:00:00 23.4 2 Noroeste 10 Oeste 0.2 -- -- 57
2019-09-21 15:00:00 21.8 10 Sudoeste 15 Sudoeste 0 -- -- 61
2019-09-21 14:00:00 22.8 9 Este 23 Este 0 -- -- 53
2019-09-21 13:00:00 22.6 14 Nordeste 25 Nordeste 0 -- -- 57
2019-09-21 12:00:00 21 8 Nordeste 17 Este 0 -- -- 63
2019-09-21 11:00:00 18.1 5 Nordeste 14 Nordeste 0 -- -- 75
2019-09-21 10:00:00 16.6 8 Nordeste 15 Este 0 -- -- 83
2019-09-21 09:00:00 15.8 6 Sudeste -- -- -- -- -- 86
2019-09-21 08:00:00 15.4 7 Sudoeste 12 Sudoeste 0 -- -- 82
2019-09-21 07:00:00 15.6 2 Sudeste 8 Nordeste 0 -- -- 81
2019-09-21 06:00:00 15.4 4 Nordeste 7 Norte 0 -- -- 81
2019-09-21 05:00:00 15.3 4 Sudeste 5 Sudeste 0 -- -- 81
2019-09-21 04:00:00 15.7 4 Sudeste 7 Nordeste 0 -- -- 79
2019-09-21 03:00:00 15.4 3 Este 8 Nordeste 0 -- -- 79
2019-09-21 02:00:00 16.1 4 Este 9 Nordeste 0 -- -- 74
2019-09-21 01:00:00 17.2 3 Nordeste 12 Este 0 -- -- 66
2019-09-21 00:00:00 18.5 5 Nordeste 12 Este 0 -- -- 59
2019-09-20 23:00:00 20.1 4 Este 22 Este 0 -- -- 51
2019-09-20 22:00:00 20.9 10 Este 26 Este 0 -- -- 54
2019-09-20 21:00:00 21.7 7 Sudeste 29 Sur 0 -- -- 57
2019-09-20 20:00:00 22.9 16 Sur 32 Sur 0 -- -- 57
2019-09-20 19:00:00 24.4 11 Sudeste 20 Sudeste 0 -- -- 46
2019-09-20 18:00:00 26.3 8 Sudeste 21 Sudeste 0 -- -- 41
2019-09-20 17:00:00 27.7 11 Nordeste 20 Nordeste 0 -- -- 39
2019-09-20 16:00:00 26.5 8 Nordeste 26 Nordeste 0 -- -- 42
2019-09-20 15:00:00 26.7 9 Nordeste 22 Este 0 -- -- 43
2019-09-20 14:00:00 25.5 8 Sudeste 18 Nordeste 0 -- -- 45
2019-09-20 13:00:00 24.5 8 Sudeste 21 Nordeste 0 -- -- 47
2019-09-20 12:00:00 23.4 10 Nordeste 22 Este 0 -- -- 50
2019-09-20 11:00:00 22 7 Nordeste 15 Nordeste 0 -- -- 55
2019-09-20 10:00:00 18.4 3 Nordeste 6 Nordeste 0 -- -- 72
2019-09-20 09:00:00 16.1 2 Norte 6 Nordeste 0 -- -- 81
2019-09-20 08:00:00 15.1 2 Este 6 Nordeste 0 -- -- 81
2019-09-20 07:00:00 14.7 3 Sudeste 9 Norte 0 -- -- 83
2019-09-20 06:00:00 15.3 3 Este 7 Este 0 -- -- 80
2019-09-20 05:00:00 15.4 0 Calma 8 Este 0 -- -- 79
2019-09-20 04:00:00 16.1 4 Este 8 Nordeste 0 -- -- 78
2019-09-20 03:00:00 16.6 4 Nordeste 11 Nordeste 0 -- -- 77
2019-09-20 02:00:00 16.8 4 Nordeste 10 Este 0 -- -- 74
2019-09-20 01:00:00 17.5 4 Este 9 Norte 0 -- -- 73
2019-09-20 00:00:00 17.9 4 Nordeste 15 Nordeste 0 -- -- 71